Time;durP1;ratioP1;P1;durP2;ratioP2;P2;SDS_P1;SDS_P2;PMS_P1;PMS_P2;Temp;Humidity;BMP_temperature;BMP_pressure;BME280_temperature;BME280_humidity;BME280_pressure;Samples;Min_cycle;Max_cycle;Signal;HPM_P1;HPM_P2
2022/04/22 00:02:07;;;;;;;1.08;0.80;;;;;;;;;;5075353;28;20028;-48
2022/04/22 00:04:33;;;;;;;1.40;1.10;;;;;;;;;;5075533;28;20032;-56
2022/04/22 00:06:59;;;;;;;1.35;0.90;;;;;;;;;;5075389;28;20029;-45
2022/04/22 00:09:25;;;;;;;1.50;1.20;;;;;;;;;;5075585;28;20090;-45
2022/04/22 00:11:51;;;;;;;3.28;1.33;;;;;;;;;;5074923;28;20032;-45
2022/04/22 00:14:17;;;;;;;0.88;0.80;;;;;;;;;;5059214;28;20505;-46
2022/04/22 00:16:43;;;;;;;1.02;0.70;;;;;;;;;;5074843;28;20031;-45
2022/04/22 00:19:09;;;;;;;1.63;1.00;;;;;;;;;;5075351;28;20035;-45
2022/04/22 00:21:35;;;;;;;1.75;1.20;;;;;;;;;;5075077;28;20016;-56
2022/04/22 00:24:01;;;;;;;1.02;0.82;;;;;;;;;;5075218;28;20106;-46
2022/04/22 00:26:28;;;;;;;0.95;0.85;;;;;;;;;;5074278;28;20080;-44
2022/04/22 00:28:54;;;;;;;1.30;0.98;;;;;;;;;;5054598;28;20029;-45
2022/04/22 00:31:20;;;;;;;1.55;1.00;;;;;;;;;;5057333;28;20036;-49
2022/04/22 00:33:45;;;;;;;1.25;0.90;;;;;;;;;;5054624;28;20040;-48
2022/04/22 00:36:12;;;;;;;1.15;0.88;;;;;;;;;;5063670;28;20085;-45
2022/04/22 00:38:38;;;;;;;1.35;0.98;;;;;;;;;;5073942;28;20537;-49
2022/04/22 00:41:04;;;;;;;1.58;0.93;;;;;;;;;;5074891;28;20020;-45
2022/04/22 00:43:40;;;;;;;0.98;0.80;;;;;;;;;;5068745;28;20122;-45
2022/04/22 00:46:06;;;;;;;1.25;0.80;;;;;;;;;;5055272;28;20028;-46
2022/04/22 00:48:32;;;;;;;1.42;1.08;;;;;;;;;;5054623;28;20032;-45
2022/04/22 00:50:58;;;;;;;1.75;1.10;;;;;;;;;;5055741;28;20029;-45
2022/04/22 00:53:25;;;;;;;1.40;1.02;;;;;;;;;;5056417;28;20032;-46
2022/04/22 00:55:51;;;;;;;1.13;1.00;;;;;;;;;;5072755;28;20052;-46
2022/04/22 00:58:17;;;;;;;1.50;1.10;;;;;;;;;;5068086;28;20032;-46
2022/04/22 01:00:43;;;;;;;0.85;0.68;;;;;;;;;;5055335;28;20045;-45
2022/04/22 01:03:09;;;;;;;1.58;1.15;;;;;;;;;;5056353;28;20059;-45
2022/04/22 01:11:05;;;;;;;1.10;0.90;;;;;;;;;;5074669;28;20448;-44
2022/04/22 01:13:31;;;;;;;1.25;1.08;;;;;;;;;;5074415;28;20031;-45
2022/04/22 01:15:58;;;;;;;1.48;0.85;;;;;;;;;;5073895;28;20078;-45
2022/04/22 01:18:24;;;;;;;1.10;0.98;;;;;;;;;;5074042;28;20099;-45
2022/04/22 01:20:50;;;;;;;1.00;0.85;;;;;;;;;;5073859;28;20016;-47
2022/04/22 01:23:16;;;;;;;1.27;1.02;;;;;;;;;;5074268;28;20458;-45
2022/04/22 01:25:42;;;;;;;1.23;1.00;;;;;;;;;;5073574;28;20017;-45
2022/04/22 01:28:10;;;;;;;1.48;1.10;;;;;;;;;;5073857;28;20410;-45
2022/04/22 01:30:36;;;;;;;1.13;0.88;;;;;;;;;;5073779;28;20104;-56
2022/04/22 01:33:02;;;;;;;1.60;0.98;;;;;;;;;;5073232;28;20043;-45
2022/04/22 01:35:28;;;;;;;2.00;1.30;;;;;;;;;;5074442;28;20074;-45
2022/04/22 01:37:54;;;;;;;1.50;1.00;;;;;;;;;;5073239;28;20021;-46
2022/04/22 01:40:20;;;;;;;1.85;1.25;;;;;;;;;;5073805;28;20039;-45
2022/04/22 01:42:46;;;;;;;1.80;0.82;;;;;;;;;;5072913;28;20123;-46
2022/04/22 01:45:12;;;;;;;1.15;0.90;;;;;;;;;;5074203;28;20123;-46
2022/04/22 01:47:39;;;;;;;1.38;0.90;;;;;;;;;;5073045;28;20481;-56
2022/04/22 01:50:06;;;;;;;1.27;0.90;;;;;;;;;;5072729;28;20031;-45
2022/04/22 01:52:33;;;;;;;1.92;1.00;;;;;;;;;;5073641;28;20029;-45
2022/04/22 01:54:58;;;;;;;1.23;1.05;;;;;;;;;;5073028;28;20169;-46
2022/04/22 01:57:24;;;;;;;0.70;0.70;;;;;;;;;;5073684;28;20465;-47
2022/04/22 01:59:50;;;;;;;1.00;0.90;;;;;;;;;;5073052;28;20123;-45
2022/04/22 02:02:17;;;;;;;1.45;1.20;;;;;;;;;;5073495;28;20031;-45
2022/04/22 02:04:43;;;;;;;2.28;1.25;;;;;;;;;;5072613;28;20028;-46
2022/04/22 02:07:10;;;;;;;1.08;0.77;;;;;;;;;;5073277;28;20027;-46
2022/04/22 02:09:36;;;;;;;1.65;1.10;;;;;;;;;;5073111;28;20393;-45
2022/04/22 02:12:02;;;;;;;1.17;0.90;;;;;;;;;;5072712;28;20497;-45
2022/04/22 02:14:28;;;;;;;1.05;0.90;;;;;;;;;;5072949;28;20032;-45
2022/04/22 02:16:54;;;;;;;1.00;0.90;;;;;;;;;;5072620;28;20370;-44
2022/04/22 02:19:20;;;;;;;1.45;1.00;;;;;;;;;;5072701;28;20043;-44
2022/04/22 02:21:47;;;;;;;1.67;1.15;;;;;;;;;;5072057;28;20035;-46
2022/04/22 02:24:13;;;;;;;1.92;1.20;;;;;;;;;;5072988;28;20374;-44
2022/04/22 02:29:23;;;;;;;1.02;0.80;;;;;;;;;;5072767;28;20062;-44
2022/04/22 02:31:53;;;;;;;1.00;0.80;;;;;;;;;;5070918;28;20033;-45
2022/04/22 02:34:22;;;;;;;1.23;0.90;;;;;;;;;;5071257;28;20021;-44
2022/04/22 02:36:48;;;;;;;1.65;1.13;;;;;;;;;;5052352;28;20033;-45
2022/04/22 02:39:15;;;;;;;1.30;1.20;;;;;;;;;;5067301;28;20370;-47
2022/04/22 02:47:10;;;;;;;1.20;1.00;;;;;;;;;;5072546;28;20074;-47
2022/04/22 02:49:36;;;;;;;1.30;1.00;;;;;;;;;;5072342;28;20528;-45
2022/04/22 02:52:02;;;;;;;1.13;1.02;;;;;;;;;;5072048;28;20021;-45
2022/04/22 02:54:30;;;;;;;1.63;1.17;;;;;;;;;;5072164;28;20028;-44
2022/04/22 02:56:57;;;;;;;2.53;1.10;;;;;;;;;;5071987;28;20477;-44
2022/04/22 02:59:23;;;;;;;1.75;1.00;;;;;;;;;;5072282;28;20052;-44
2022/04/22 03:01:49;;;;;;;1.40;1.02;;;;;;;;;;5071258;28;20021;-47
2022/04/22 03:04:16;;;;;;;1.40;1.08;;;;;;;;;;5071734;28;20025;-44
2022/04/22 03:06:43;;;;;;;1.77;1.25;;;;;;;;;;5071972;28;20017;-55
2022/04/22 03:09:09;;;;;;;1.70;1.13;;;;;;;;;;5071978;28;20029;-44
2022/04/22 03:11:35;;;;;;;1.95;1.20;;;;;;;;;;5071765;28;20495;-45
2022/04/22 03:14:03;;;;;;;1.60;1.00;;;;;;;;;;5071218;28;20027;-45
2022/04/22 03:16:29;;;;;;;0.90;0.80;;;;;;;;;;5068539;28;20541;-44
2022/04/22 03:18:55;;;;;;;1.00;0.90;;;;;;;;;;5071039;28;20032;-44
2022/04/22 03:21:24;;;;;;;1.55;1.10;;;;;;;;;;5072057;28;20037;-44
2022/04/22 03:23:50;;;;;;;1.30;1.17;;;;;;;;;;5071057;28;20086;-44
2022/04/22 03:26:17;;;;;;;1.60;1.27;;;;;;;;;;5071538;28;20077;-45
2022/04/22 03:28:42;;;;;;;1.63;1.10;;;;;;;;;;5071163;28;20389;-57
2022/04/22 03:31:09;;;;;;;1.27;1.17;;;;;;;;;;5070534;28;20081;-45
2022/04/22 03:33:34;;;;;;;1.58;1.27;;;;;;;;;;5071767;28;20039;-44
2022/04/22 03:36:00;;;;;;;1.33;1.08;;;;;;;;;;5069820;28;20028;-44
2022/04/22 03:38:27;;;;;;;1.42;1.33;;;;;;;;;;5071849;28;20029;-45
2022/04/22 03:40:54;;;;;;;1.42;1.10;;;;;;;;;;5070966;28;20025;-44
2022/04/22 03:43:22;;;;;;;1.55;1.02;;;;;;;;;;5071860;28;20035;-44
2022/04/22 03:45:48;;;;;;;1.88;1.30;;;;;;;;;;5070718;28;20107;-54
2022/04/22 03:48:14;;;;;;;1.90;1.27;;;;;;;;;;5071494;28;20012;-44
2022/04/22 03:50:41;;;;;;;1.63;1.30;;;;;;;;;;5071289;28;20028;-46
2022/04/22 03:53:11;;;;;;;1.77;1.30;;;;;;;;;;5070976;28;20159;-44
2022/04/22 03:55:38;;;;;;;1.95;1.30;;;;;;;;;;5071324;28;20500;-44
2022/04/22 03:58:10;;;;;;;1.40;1.13;;;;;;;;;;5071091;28;20029;-44
2022/04/22 04:00:40;;;;;;;1.30;0.90;;;;;;;;;;5071944;28;20036;-45
2022/04/22 04:03:07;;;;;;;1.60;1.30;;;;;;;;;;5070558;28;20035;-46
2022/04/22 04:05:33;;;;;;;1.35;1.25;;;;;;;;;;5071572;28;20036;-44
2022/04/22 04:07:59;;;;;;;1.40;1.10;;;;;;;;;;5070453;28;20102;-44
2022/04/22 04:16:03;;;;;;;1.77;1.10;;;;;;;;;;5070146;28;20114;-45
2022/04/22 04:18:33;;;;;;;2.15;1.42;;;;;;;;;;5071555;28;20103;-45
2022/04/22 04:23:45;;;;;;;1.60;1.30;;;;;;;;;;5071437;28;20044;-44
2022/04/22 04:26:11;;;;;;;1.95;1.23;;;;;;;;;;5070757;28;20021;-49
2022/04/22 04:28:38;;;;;;;1.00;0.88;;;;;;;;;;5071540;28;20041;-45
2022/04/22 04:31:04;;;;;;;1.80;1.02;;;;;;;;;;5070575;28;20028;-46
2022/04/22 04:33:31;;;;;;;1.65;1.23;;;;;;;;;;5071220;28;20025;-46
2022/04/22 04:35:58;;;;;;;1.35;1.23;;;;;;;;;;5070638;28;20108;-44
2022/04/22 04:38:24;;;;;;;1.20;1.10;;;;;;;;;;5071139;28;20020;-47
2022/04/22 04:40:51;;;;;;;2.10;1.20;;;;;;;;;;5070665;28;20377;-56
2022/04/22 04:43:17;;;;;;;1.83;1.30;;;;;;;;;;5073024;28;20021;-44
2022/04/22 04:45:44;;;;;;;2.35;1.40;;;;;;;;;;5074629;28;20056;-46
2022/04/22 04:48:10;;;;;;;1.35;1.05;;;;;;;;;;5073988;28;20074;-45
2022/04/22 04:50:36;;;;;;;1.50;1.20;;;;;;;;;;5066583;28;20468;-44
2022/04/22 04:53:02;;;;;;;4.70;3.65;;;;;;;;;;5073854;28;20036;-44
2022/04/22 04:55:28;;;;;;;6.65;4.47;;;;;;;;;;5077254;28;20444;-44
2022/04/22 04:57:54;;;;;;;6.70;5.38;;;;;;;;;;5074273;28;20038;-44
2022/04/22 05:00:20;;;;;;;7.90;5.10;;;;;;;;;;5074553;28;20032;-47
2022/04/22 05:02:46;;;;;;;9.82;5.50;;;;;;;;;;5074376;28;20386;-45
2022/04/22 05:05:13;;;;;;;8.00;5.75;;;;;;;;;;5073642;28;20085;-44
2022/04/22 05:07:53;;;;;;;10.65;5.38;;;;;;;;;;5073983;28;20035;-44
2022/04/22 05:10:19;;;;;;;7.15;4.72;;;;;;;;;;5063489;28;20094;-44
2022/04/22 05:12:49;;;;;;;6.13;4.22;;;;;;;;;;5074308;28;20037;-45
2022/04/22 05:15:17;;;;;;;4.47;3.30;;;;;;;;;;5073638;28;20032;-45
2022/04/22 05:17:43;;;;;;;4.45;2.97;;;;;;;;;;5074052;28;20086;-45
2022/04/22 05:20:10;;;;;;;5.32;3.28;;;;;;;;;;5073479;28;20479;-45
2022/04/22 05:22:36;;;;;;;4.40;3.17;;;;;;;;;;5074053;28;20067;-54
2022/04/22 05:25:04;;;;;;;4.55;2.60;;;;;;;;;;5073460;28;20033;-42
2022/04/22 05:27:30;;;;;;;5.57;2.58;;;;;;;;;;5073726;28;20482;-43
2022/04/22 05:32:43;;;;;;;7.43;3.03;;;;;;;;;;5073701;28;20057;-42
2022/04/22 05:35:10;;;;;;;3.05;2.05;;;;;;;;;;5073184;28;20054;-42
2022/04/22 05:38:02;;;;;;;4.38;2.22;;;;;;;;;;5074233;28;20154;-42
2022/04/22 05:40:32;;;;;;;3.65;1.83;;;;;;;;;;5057311;28;20093;-43
2022/04/22 05:42:59;;;;;;;3.58;1.73;;;;;;;;;;5072924;28;20550;-43
2022/04/22 05:45:26;;;;;;;4.05;2.58;;;;;;;;;;5073661;28;20036;-42
2022/04/22 05:47:52;;;;;;;5.28;2.65;;;;;;;;;;5072804;28;20050;-51
2022/04/22 05:50:18;;;;;;;5.70;2.33;;;;;;;;;;5071923;28;20055;-45
2022/04/22 05:52:45;;;;;;;3.28;1.88;;;;;;;;;;5072713;28;20024;-42
2022/04/22 05:55:12;;;;;;;2.63;1.70;;;;;;;;;;5072114;28;20028;-44
2022/04/22 05:57:39;;;;;;;5.38;2.10;;;;;;;;;;5073413;28;20029;-42
2022/04/22 06:00:08;;;;;;;3.30;1.80;;;;;;;;;;5072643;28;20021;-44
2022/04/22 06:02:34;;;;;;;3.03;1.83;;;;;;;;;;5073180;28;20059;-43
2022/04/22 06:05:00;;;;;;;3.00;2.08;;;;;;;;;;5072170;28;20025;-43
2022/04/22 06:07:26;;;;;;;2.97;1.45;;;;;;;;;;5073658;28;20056;-42
2022/04/22 06:12:39;;;;;;;6.88;1.92;;;;;;;;;;5073630;28;20532;-43
2022/04/22 06:15:05;;;;;;;7.00;2.45;;;;;;;;;;5072546;28;20086;-46
2022/04/22 06:17:32;;;;;;;3.10;2.08;;;;;;;;;;5074000;28;20031;-44
2022/04/22 06:19:59;;;;;;;4.95;1.73;;;;;;;;;;5071653;28;20056;-53
2022/04/22 06:22:30;;;;;;;3.85;2.05;;;;;;;;;;5072718;28;20032;-43
2022/04/22 06:24:56;;;;;;;3.53;1.85;;;;;;;;;;5072134;28;20127;-52
2022/04/22 06:27:26;;;;;;;4.10;2.50;;;;;;;;;;5071911;28;20052;-43
2022/04/22 06:29:53;;;;;;;3.25;1.77;;;;;;;;;;5073325;28;20089;-43
2022/04/22 06:32:19;;;;;;;5.57;2.00;;;;;;;;;;5071884;28;20914;-43
2022/04/22 06:34:45;;;;;;;4.70;2.10;;;;;;;;;;5072984;28;20024;-45
2022/04/22 06:37:11;;;;;;;7.05;2.78;;;;;;;;;;5071812;28;20028;-43
2022/04/22 06:48:10;;;;;;;3.90;1.90;;;;;;;;;;5071557;28;20562;-47
2022/04/22 06:50:36;;;;;;;4.72;2.20;;;;;;;;;;5072146;28;20041;-45
2022/04/22 06:53:02;;;;;;;3.60;1.77;;;;;;;;;;5071364;28;20355;-44
2022/04/22 06:55:28;;;;;;;7.28;2.00;;;;;;;;;;5072255;28;20107;-43
2022/04/22 06:57:57;;;;;;;4.32;2.17;;;;;;;;;;5072369;28;20030;-47
2022/04/22 07:00:23;;;;;;;3.53;1.75;;;;;;;;;;5071748;28;20127;-44
2022/04/22 07:02:49;;;;;;;5.25;2.13;;;;;;;;;;5071813;28;20029;-45
2022/04/22 07:05:16;;;;;;;7.10;2.22;;;;;;;;;;5071180;28;20032;-43
2022/04/22 07:07:42;;;;;;;2.97;1.90;;;;;;;;;;5070626;28;20082;-42
2022/04/22 07:10:08;;;;;;;2.83;2.17;;;;;;;;;;5071208;28;20033;-42
2022/04/22 07:12:35;;;;;;;3.15;2.00;;;;;;;;;;5071910;28;20547;-42
2022/04/22 07:15:04;;;;;;;2.58;1.77;;;;;;;;;;5071174;28;20028;-52
2022/04/22 07:17:40;;;;;;;4.63;2.00;;;;;;;;;;5071644;28;20107;-44
2022/04/22 07:20:09;;;;;;;2.72;1.73;;;;;;;;;;5071009;28;20106;-45
2022/04/22 07:22:36;;;;;;;2.53;1.85;;;;;;;;;;5071734;28;20036;-45
2022/04/22 07:25:03;;;;;;;5.47;2.55;;;;;;;;;;5071244;28;20031;-44
2022/04/22 07:27:30;;;;;;;3.10;1.80;;;;;;;;;;5071483;28;20052;-45
2022/04/22 07:29:59;;;;;;;4.30;2.10;;;;;;;;;;5071597;28;20031;-44
2022/04/22 07:32:26;;;;;;;3.85;2.08;;;;;;;;;;5071032;28;20044;-44
2022/04/22 07:34:53;;;;;;;4.30;1.70;;;;;;;;;;5071707;28;20112;-44
2022/04/22 07:37:20;;;;;;;3.00;1.90;;;;;;;;;;5070922;28;20024;-45
2022/04/22 07:39:46;;;;;;;9.85;2.38;;;;;;;;;;5071772;28;20029;-43
2022/04/22 07:42:17;;;;;;;2.70;1.48;;;;;;;;;;5071085;28;20059;-46
2022/04/22 07:47:30;;;;;;;3.75;2.38;;;;;;;;;;5071368;28;20039;-45
2022/04/22 07:49:56;;;;;;;3.65;2.15;;;;;;;;;;5071534;28;20021;-45
2022/04/22 07:52:23;;;;;;;2.92;1.77;;;;;;;;;;5071176;28;20095;-45
2022/04/22 07:54:49;;;;;;;3.95;2.35;;;;;;;;;;5070419;28;20029;-44
2022/04/22 07:57:15;;;;;;;2.00;1.42;;;;;;;;;;5070023;28;20059;-46
2022/04/22 07:59:42;;;;;;;3.80;1.88;;;;;;;;;;5071558;28;20033;-45
2022/04/22 08:02:08;;;;;;;2.38;1.90;;;;;;;;;;5070668;28;20094;-46
2022/04/22 08:04:34;;;;;;;3.60;2.00;;;;;;;;;;5071529;28;20082;-49
2022/04/22 08:07:05;;;;;;;4.80;2.13;;;;;;;;;;5071176;28;20028;-55
2022/04/22 08:09:31;;;;;;;2.60;1.60;;;;;;;;;;5071589;28;20032;-47
2022/04/22 08:11:57;;;;;;;5.00;1.90;;;;;;;;;;5071480;28;20539;-49
2022/04/22 08:14:25;;;;;;;2.75;1.90;;;;;;;;;;5070790;28;20017;-50
2022/04/22 08:16:51;;;;;;;3.90;2.50;;;;;;;;;;5071340;28;20029;-48
2022/04/22 08:19:18;;;;;;;2.85;2.30;;;;;;;;;;5074280;28;20024;-46
2022/04/22 08:21:44;;;;;;;2.63;2.15;;;;;;;;;;5075691;28;20036;-46
2022/04/22 08:24:10;;;;;;;2.00;1.77;;;;;;;;;;5073359;28;20033;-50
2022/04/22 08:26:37;;;;;;;7.07;2.45;;;;;;;;;;5074852;28;20194;-51
2022/04/22 08:29:03;;;;;;;3.70;1.90;;;;;;;;;;5074473;28;20024;-53
2022/04/22 08:31:29;;;;;;;2.88;2.08;;;;;;;;;;5075239;28;20035;-48
2022/04/22 08:33:57;;;;;;;2.45;1.70;;;;;;;;;;5075018;28;20489;-47
2022/04/22 08:36:23;;;;;;;2.85;1.95;;;;;;;;;;5073634;28;20020;-49
2022/04/22 08:38:49;;;;;;;3.10;2.10;;;;;;;;;;5074640;28;20031;-47
2022/04/22 08:41:15;;;;;;;3.83;2.10;;;;;;;;;;5074063;28;20401;-47
2022/04/22 08:43:41;;;;;;;2.88;1.77;;;;;;;;;;5073557;28;20032;-48
2022/04/22 08:49:58;;;;;;;4.45;1.88;;;;;;;;;;5074062;28;20048;-47
2022/04/22 08:51:41;;;;;;;2.95;2.13;;;;;;;;;;5074522;28;20574;-47
2022/04/22 08:54:09;;;;;;;4.63;2.20;;;;;;;;;;5073731;28;20029;-56
2022/04/22 08:56:36;;;;;;;4.30;2.28;;;;;;;;;;5074133;28;20144;-47
2022/04/22 08:59:03;;;;;;;3.08;2.08;;;;;;;;;;5074253;28;20432;-45
2022/04/22 09:01:29;;;;;;;2.78;1.98;;;;;;;;;;5073859;28;20032;-47
2022/04/22 09:03:55;;;;;;;5.22;2.40;;;;;;;;;;5074569;28;20032;-45
2022/04/22 09:06:25;;;;;;;1.92;1.60;;;;;;;;;;5073884;28;20032;-49
2022/04/22 09:08:52;;;;;;;3.40;2.55;;;;;;;;;;5061986;28;20075;-49
2022/04/22 09:11:18;;;;;;;3.90;2.03;;;;;;;;;;5073906;28;20033;-45
2022/04/22 09:13:44;;;;;;;4.03;1.98;;;;;;;;;;5074319;28;20024;-51
2022/04/22 09:16:18;;;;;;;3.50;2.22;;;;;;;;;;5073321;28;20036;-47
2022/04/22 09:18:46;;;;;;;3.65;1.95;;;;;;;;;;5073736;28;20033;-47
2022/04/22 09:21:15;;;;;;;2.50;1.67;;;;;;;;;;5073066;28;20027;-47
2022/04/22 09:23:42;;;;;;;4.25;2.65;;;;;;;;;;5074296;28;20028;-49
2022/04/22 09:26:19;;;;;;;2.58;2.00;;;;;;;;;;5073535;28;20028;-53
2022/04/22 09:28:57;;;;;;;2.88;2.05;;;;;;;;;;5073139;28;20119;-46
2022/04/22 09:31:25;;;;;;;8.70;2.22;;;;;;;;;;5072839;28;20081;-47
2022/04/22 09:33:51;;;;;;;2.05;1.85;;;;;;;;;;5073527;28;20025;-50
2022/04/22 09:44:51;;;;;;;5.43;2.38;;;;;;;;;;5073405;28;20450;-48
2022/04/22 09:47:19;;;;;;;2.47;1.58;;;;;;;;;;5072649;28;20079;-47
2022/04/22 09:49:46;;;;;;;3.60;2.20;;;;;;;;;;5073394;28;20126;-47
2022/04/22 09:52:12;;;;;;;5.07;2.20;;;;;;;;;;5073193;28;20398;-48
2022/04/22 09:54:38;;;;;;;3.75;2.25;;;;;;;;;;5073655;28;20104;-47
2022/04/22 09:57:05;;;;;;;3.92;1.70;;;;;;;;;;5073209;28;20051;-46
2022/04/22 09:59:33;;;;;;;4.93;2.60;;;;;;;;;;5072473;28;20089;-47
2022/04/22 10:02:04;;;;;;;4.28;2.00;;;;;;;;;;5073195;28;20050;-45
2022/04/22 10:04:32;;;;;;;6.10;2.10;;;;;;;;;;5072428;28;20032;-46
2022/04/22 10:07:00;;;;;;;3.60;2.03;;;;;;;;;;5072390;28;20055;-50
2022/04/22 10:09:28;;;;;;;6.22;2.35;;;;;;;;;;5070844;28;20033;-48
2022/04/22 10:11:57;;;;;;;2.90;1.75;;;;;;;;;;5072167;28;20035;-49
2022/04/22 10:14:40;;;;;;;3.60;1.90;;;;;;;;;;5072205;28;20043;-48
2022/04/22 10:17:07;;;;;;;6.30;2.50;;;;;;;;;;5072863;28;20033;-51
2022/04/22 10:19:34;;;;;;;7.78;2.40;;;;;;;;;;5072794;28;20063;-46
2022/04/22 10:22:04;;;;;;;4.95;2.00;;;;;;;;;;5073311;28;20167;-48
2022/04/22 10:24:31;;;;;;;3.85;2.80;;;;;;;;;;5072299;28;20078;-47
2022/04/22 10:26:59;;;;;;;7.25;3.05;;;;;;;;;;5072660;28;20056;-48
2022/04/22 10:29:25;;;;;;;3.60;1.90;;;;;;;;;;5070938;28;20036;-46
2022/04/22 10:31:52;;;;;;;4.85;2.08;;;;;;;;;;5072532;28;20020;-47
2022/04/22 10:34:19;;;;;;;5.32;2.75;;;;;;;;;;5071567;28;20066;-46
2022/04/22 10:36:46;;;;;;;4.80;2.03;;;;;;;;;;5072742;28;20016;-48
2022/04/22 10:39:32;;;;;;;3.13;2.20;;;;;;;;;;5071928;28;20430;-53
2022/04/22 10:41:59;;;;;;;7.82;2.53;;;;;;;;;;5071542;28;20503;-47
2022/04/22 10:47:13;;;;;;;2.85;2.25;;;;;;;;;;5072112;28;20521;-54
2022/04/22 10:49:40;;;;;;;6.10;2.90;;;;;;;;;;5072262;28;20366;-46
2022/04/22 10:52:10;;;;;;;6.07;1.90;;;;;;;;;;5072561;28;20048;-47
2022/04/22 10:54:54;;;;;;;5.65;2.10;;;;;;;;;;5072057;28;20108;-46
2022/04/22 10:57:23;;;;;;;4.90;2.67;;;;;;;;;;5070953;28;20044;-45
2022/04/22 11:00:07;;;;;;;10.02;2.75;;;;;;;;;;5071876;28;20032;-46
2022/04/22 11:02:40;;;;;;;4.47;2.45;;;;;;;;;;5053210;28;20478;-48
2022/04/22 11:05:20;;;;;;;3.70;1.90;;;;;;;;;;5069342;28;20040;-47
2022/04/22 11:07:58;;;;;;;5.50;2.25;;;;;;;;;;5072532;28;20107;-47
2022/04/22 11:10:32;;;;;;;5.18;2.47;;;;;;;;;;5071106;28;20025;-47
2022/04/22 11:12:59;;;;;;;6.82;2.65;;;;;;;;;;5072202;28;20040;-47
2022/04/22 11:15:43;;;;;;;5.70;2.50;;;;;;;;;;5070494;28;20032;-48
2022/04/22 11:18:10;;;;;;;4.32;2.40;;;;;;;;;;5072261;28;20021;-48
2022/04/22 11:20:37;;;;;;;3.78;2.17;;;;;;;;;;5071380;28;20512;-50
2022/04/22 11:23:05;;;;;;;3.53;2.00;;;;;;;;;;5072175;28;20028;-47
2022/04/22 11:25:31;;;;;;;6.35;2.40;;;;;;;;;;5071029;28;20027;-50
2022/04/22 11:27:58;;;;;;;5.10;2.17;;;;;;;;;;5070936;28;20490;-46
2022/04/22 11:30:27;;;;;;;5.97;2.72;;;;;;;;;;5071400;28;20032;-49
2022/04/22 11:32:57;;;;;;;8.30;2.42;;;;;;;;;;5070193;28;20044;-46
2022/04/22 11:35:23;;;;;;;6.38;2.20;;;;;;;;;;5070932;28;20089;-46
2022/04/22 11:38:00;;;;;;;3.80;1.92;;;;;;;;;;5071736;28;20033;-46
2022/04/22 11:40:26;;;;;;;7.38;2.53;;;;;;;;;;5070971;28;20039;-46
2022/04/22 11:42:54;;;;;;;3.83;2.20;;;;;;;;;;5071680;28;20490;-48
2022/04/22 11:45:21;;;;;;;4.88;2.35;;;;;;;;;;5070324;28;20430;-46
2022/04/22 11:47:47;;;;;;;4.68;2.50;;;;;;;;;;5071548;28;20028;-49
2022/04/22 11:50:18;;;;;;;3.90;2.10;;;;;;;;;;5070582;28;20052;-55
2022/04/22 11:52:45;;;;;;;5.63;2.30;;;;;;;;;;5072880;28;20030;-49
2022/04/22 11:55:12;;;;;;;2.92;2.20;;;;;;;;;;5057166;28;20267;-49
2022/04/22 11:57:39;;;;;;;5.78;2.30;;;;;;;;;;5063025;28;20036;-48
2022/04/22 12:05:43;;;;;;;3.42;2.30;;;;;;;;;;5052838;28;20032;-47
2022/04/22 12:08:11;;;;;;;5.03;2.17;;;;;;;;;;5067501;28;20035;-53
2022/04/22 12:10:37;;;;;;;3.67;2.00;;;;;;;;;;5070691;28;20079;-48
2022/04/22 12:13:04;;;;;;;2.65;1.73;;;;;;;;;;5055665;28;20033;-52
2022/04/22 12:15:30;;;;;;;4.40;2.10;;;;;;;;;;5069377;28;20048;-48
2022/04/22 12:17:57;;;;;;;3.60;1.80;;;;;;;;;;5071398;28;20017;-49
2022/04/22 12:20:25;;;;;;;6.05;2.28;;;;;;;;;;5070822;28;20461;-51
2022/04/22 12:22:52;;;;;;;5.03;1.95;;;;;;;;;;5071561;28;20027;-49
2022/04/22 12:25:20;;;;;;;3.40;2.13;;;;;;;;;;5070765;28;20032;-55
2022/04/22 12:28:05;;;;;;;4.43;2.20;;;;;;;;;;5064247;28;20041;-49
2022/04/22 12:30:38;;;;;;;4.10;2.30;;;;;;;;;;5070453;28;20111;-49
2022/04/22 12:33:05;;;;;;;4.47;1.98;;;;;;;;;;5069951;28;20115;-49
2022/04/22 12:35:31;;;;;;;3.35;2.20;;;;;;;;;;5070479;28;20081;-49
2022/04/22 12:37:57;;;;;;;4.93;2.35;;;;;;;;;;5071302;28;20385;-47
2022/04/22 12:40:23;;;;;;;4.25;2.13;;;;;;;;;;5070163;28;20033;-46
2022/04/22 12:42:50;;;;;;;4.53;2.10;;;;;;;;;;5071270;28;20483;-46
2022/04/22 12:53:49;;;;;;;2.63;1.70;;;;;;;;;;5071021;28;20078;-47
2022/04/22 12:56:15;;;;;;;4.20;2.00;;;;;;;;;;5070911;28;20024;-48
2022/04/22 12:58:51;;;;;;;4.57;1.73;;;;;;;;;;5070039;28;20051;-51
2022/04/22 13:01:21;;;;;;;3.05;1.85;;;;;;;;;;5071018;28;20098;-47
2022/04/22 13:03:47;;;;;;;2.08;1.70;;;;;;;;;;5071096;28;20024;-48
2022/04/22 13:06:33;;;;;;;2.45;1.67;;;;;;;;;;5074472;28;20081;-47
2022/04/22 13:08:59;;;;;;;3.10;1.73;;;;;;;;;;5072692;28;20040;-47
2022/04/22 13:11:25;;;;;;;3.17;1.83;;;;;;;;;;5073700;28;20037;-48
2022/04/22 13:13:51;;;;;;;2.38;1.75;;;;;;;;;;5074216;28;20028;-47
2022/04/22 13:16:17;;;;;;;1.90;1.50;;;;;;;;;;5074065;28;20029;-48
2022/04/22 13:18:43;;;;;;;2.75;1.90;;;;;;;;;;5073650;28;20116;-50
2022/04/22 13:21:09;;;;;;;3.50;1.58;;;;;;;;;;5074399;28;20362;-47
2022/04/22 13:23:36;;;;;;;4.60;1.85;;;;;;;;;;5073562;28;20036;-46
2022/04/22 13:26:02;;;;;;;2.33;1.58;;;;;;;;;;5073856;28;20077;-48
2022/04/22 13:28:29;;;;;;;3.45;1.45;;;;;;;;;;5072628;28;20127;-49
2022/04/22 13:30:55;;;;;;;2.70;1.73;;;;;;;;;;5074036;28;20024;-49
2022/04/22 13:33:21;;;;;;;3.53;2.22;;;;;;;;;;5073270;28;20497;-54
2022/04/22 13:35:47;;;;;;;3.22;2.38;;;;;;;;;;5073779;28;20067;-47
2022/04/22 13:38:13;;;;;;;1.67;1.42;;;;;;;;;;5073978;28;20086;-47
2022/04/22 13:40:39;;;;;;;3.00;1.50;;;;;;;;;;5073176;28;20474;-49
2022/04/22 13:43:05;;;;;;;2.97;2.17;;;;;;;;;;5072409;28;20222;-50
2022/04/22 13:53:45;;;;;;;2.08;1.52;;;;;;;;;;5072665;28;20067;-48
2022/04/22 13:56:11;;;;;;;2.15;1.88;;;;;;;;;;5073538;28;20045;-47
2022/04/22 13:58:39;;;;;;;3.38;1.73;;;;;;;;;;5072947;28;20418;-47
2022/04/22 14:01:05;;;;;;;4.10;2.03;;;;;;;;;;5073245;28;20021;-48
2022/04/22 14:03:31;;;;;;;4.32;2.25;;;;;;;;;;5072287;28;20028;-51
2022/04/22 14:05:57;;;;;;;6.28;2.17;;;;;;;;;;5073277;28;20036;-50
2022/04/22 14:08:23;;;;;;;3.40;2.17;;;;;;;;;;5072888;28;20374;-55
2022/04/22 14:10:49;;;;;;;2.88;2.00;;;;;;;;;;5072579;28;20035;-55
2022/04/22 14:13:15;;;;;;;4.38;2.42;;;;;;;;;;5072982;28;20029;-50
2022/04/22 14:15:42;;;;;;;3.80;2.42;;;;;;;;;;5072189;28;20036;-49
2022/04/22 14:18:08;;;;;;;8.93;2.45;;;;;;;;;;5073553;28;20017;-50
2022/04/22 14:20:35;;;;;;;4.53;2.00;;;;;;;;;;5072139;28;20107;-52
2022/04/22 14:23:01;;;;;;;4.50;1.80;;;;;;;;;;5073228;28;20029;-49
2022/04/22 14:25:27;;;;;;;5.25;2.10;;;;;;;;;;5071891;28;20029;-50
2022/04/22 14:27:53;;;;;;;7.43;2.10;;;;;;;;;;5072239;28;20474;-48
2022/04/22 14:30:19;;;;;;;3.95;2.40;;;;;;;;;;5072846;28;20043;-49
2022/04/22 14:32:45;;;;;;;2.70;1.95;;;;;;;;;;5071902;28;20028;-50
2022/04/22 14:35:12;;;;;;;4.53;2.00;;;;;;;;;;5072658;28;20484;-50
2022/04/22 14:37:38;;;;;;;6.07;1.75;;;;;;;;;;5072160;28;20024;-50
2022/04/22 14:40:04;;;;;;;6.88;2.20;;;;;;;;;;5072848;28;20024;-50
2022/04/22 14:42:31;;;;;;;4.38;2.00;;;;;;;;;;5070746;28;20043;-49
2022/04/22 14:44:57;;;;;;;3.80;2.10;;;;;;;;;;5072531;28;20077;-49
2022/04/22 14:47:23;;;;;;;4.05;1.83;;;;;;;;;;5071754;28;20481;-55
2022/04/22 14:49:49;;;;;;;4.70;1.90;;;;;;;;;;5071874;28;20093;-49
2022/04/22 14:52:16;;;;;;;3.92;2.00;;;;;;;;;;5072789;28;20039;-50
2022/04/22 14:54:42;;;;;;;3.38;2.33;;;;;;;;;;5071519;28;20122;-52
2022/04/22 14:57:08;;;;;;;5.75;2.00;;;;;;;;;;5071331;28;20031;-55
2022/04/22 14:59:35;;;;;;;2.50;1.98;;;;;;;;;;5071290;28;20032;-50
2022/04/22 15:02:01;;;;;;;4.25;2.03;;;;;;;;;;5072343;28;20103;-53
2022/04/22 15:04:27;;;;;;;3.47;1.80;;;;;;;;;;5071736;28;20091;-56
2022/04/22 15:06:53;;;;;;;6.57;2.10;;;;;;;;;;5071741;28;20020;-50
2022/04/22 15:09:20;;;;;;;5.82;2.30;;;;;;;;;;5072304;28;20028;-49
2022/04/22 15:11:46;;;;;;;3.45;1.88;;;;;;;;;;5070862;28;20090;-51
2022/04/22 15:14:13;;;;;;;5.45;2.20;;;;;;;;;;5071653;28;20028;-49
2022/04/22 15:16:39;;;;;;;2.78;1.80;;;;;;;;;;5070304;28;20036;-53
2022/04/22 15:24:34;;;;;;;3.80;2.63;;;;;;;;;;5070987;28;20565;-50
2022/04/22 15:27:01;;;;;;;3.33;2.38;;;;;;;;;;5069172;28;20383;-53
2022/04/22 15:29:27;;;;;;;2.97;1.88;;;;;;;;;;5070897;28;20082;-55
2022/04/22 15:31:53;;;;;;;6.63;2.30;;;;;;;;;;5070463;28;20031;-51
2022/04/22 15:34:20;;;;;;;5.88;2.35;;;;;;;;;;5071471;28;20100;-53
2022/04/22 15:36:46;;;;;;;4.20;2.03;;;;;;;;;;5070726;28;20024;-52
2022/04/22 15:39:13;;;;;;;4.70;1.90;;;;;;;;;;5071902;28;20107;-51
2022/04/22 15:41:38;;;;;;;3.47;2.17;;;;;;;;;;5070805;28;20107;-52
2022/04/22 15:44:05;;;;;;;4.30;2.40;;;;;;;;;;5072485;28;20108;-50
2022/04/22 15:46:31;;;;;;;3.63;2.00;;;;;;;;;;5070539;28;20474;-50
2022/04/22 15:48:57;;;;;;;4.22;1.80;;;;;;;;;;5071064;28;20016;-50
2022/04/22 15:51:24;;;;;;;5.60;2.50;;;;;;;;;;5070941;28;20025;-51
2022/04/22 15:53:51;;;;;;;3.80;1.90;;;;;;;;;;5071016;28;20107;-53
2022/04/22 15:56:17;;;;;;;3.03;2.20;;;;;;;;;;5071260;28;20027;-50
2022/04/22 15:58:43;;;;;;;6.55;2.30;;;;;;;;;;5070682;28;20025;-49
2022/04/22 16:01:16;;;;;;;2.67;1.98;;;;;;;;;;5071200;28;20036;-49
2022/04/22 16:03:51;;;;;;;4.03;2.15;;;;;;;;;;5070805;28;20021;-49
2022/04/22 16:06:18;;;;;;;3.55;2.08;;;;;;;;;;5071513;28;20017;-50